sensor_id;sensor_type;location;lat;lon;timestamp;temperature;humidity
20574;DHT22;10445;50.216;7.912;2022-09-27T00:02:42;9.10;99.90
20574;DHT22;10445;50.216;7.912;2022-09-27T00:05:31;9.10;99.90
20574;DHT22;10445;50.216;7.912;2022-09-27T00:08:20;9.10;99.90
20574;DHT22;10445;50.216;7.912;2022-09-27T00:11:17;9.10;99.90
20574;DHT22;10445;50.216;7.912;2022-09-27T00:14:07;9.10;99.90
20574;DHT22;10445;50.216;7.912;2022-09-27T00:16:58;9.10;99.90
20574;DHT22;10445;50.216;7.912;2022-09-27T00:19:53;9.10;99.90
20574;DHT22;10445;50.216;7.912;2022-09-27T00:22:42;9.10;99.90
20574;DHT22;10445;50.216;7.912;2022-09-27T00:25:31;9.10;99.90
20574;DHT22;10445;50.216;7.912;2022-09-27T00:28:21;9.00;99.90
20574;DHT22;10445;50.216;7.912;2022-09-27T00:31:16;9.00;99.90
20574;DHT22;10445;50.216;7.912;2022-09-27T00:34:12;9.00;99.90
20574;DHT22;10445;50.216;7.912;2022-09-27T00:37:04;9.00;99.90
20574;DHT22;10445;50.216;7.912;2022-09-27T00:39:52;9.00;99.90
20574;DHT22;10445;50.216;7.912;2022-09-27T00:42:41;9.00;99.90
20574;DHT22;10445;50.216;7.912;2022-09-27T00:45:31;8.90;99.90
20574;DHT22;10445;50.216;7.912;2022-09-27T00:48:22;8.90;99.90
20574;DHT22;10445;50.216;7.912;2022-09-27T00:51:14;8.90;99.90
20574;DHT22;10445;50.216;7.912;2022-09-27T00:54:04;8.90;99.90
20574;DHT22;10445;50.216;7.912;2022-09-27T00:56:55;8.90;99.90
20574;DHT22;10445;50.216;7.912;2022-09-27T00:59:47;8.90;99.90
20574;DHT22;10445;50.216;7.912;2022-09-27T01:02:40;8.90;99.90
20574;DHT22;10445;50.216;7.912;2022-09-27T01:05:30;8.80;99.90
20574;DHT22;10445;50.216;7.912;2022-09-27T01:08:19;8.80;99.90
20574;DHT22;10445;50.216;7.912;2022-09-27T01:11:16;8.80;99.90
20574;DHT22;10445;50.216;7.912;2022-09-27T01:14:22;8.80;99.90
20574;DHT22;10445;50.216;7.912;2022-09-27T01:17:21;8.80;99.90
20574;DHT22;10445;50.216;7.912;2022-09-27T01:24:11;8.80;99.90
20574;DHT22;10445;50.216;7.912;2022-09-27T01:30:34;8.70;99.90
20574;DHT22;10445;50.216;7.912;2022-09-27T01:33:43;8.80;99.90
20574;DHT22;10445;50.216;7.912;2022-09-27T01:36:40;8.80;99.90
20574;DHT22;10445;50.216;7.912;2022-09-27T01:39:35;8.70;99.90
20574;DHT22;10445;50.216;7.912;2022-09-27T01:42:32;8.70;99.90
20574;DHT22;10445;50.216;7.912;2022-09-27T01:45:29;8.70;99.90
20574;DHT22;10445;50.216;7.912;2022-09-27T01:48:21;8.70;99.90
20574;DHT22;10445;50.216;7.912;2022-09-27T01:51:15;8.70;99.90
20574;DHT22;10445;50.216;7.912;2022-09-27T01:54:05;8.70;99.90
20574;DHT22;10445;50.216;7.912;2022-09-27T01:56:56;8.60;99.90
20574;DHT22;10445;50.216;7.912;2022-09-27T01:59:49;8.70;99.90
20574;DHT22;10445;50.216;7.912;2022-09-27T02:02:46;8.60;99.90
20574;DHT22;10445;50.216;7.912;2022-09-27T02:05:40;8.50;99.90
20574;DHT22;10445;50.216;7.912;2022-09-27T02:08:35;8.40;99.90
20574;DHT22;10445;50.216;7.912;2022-09-27T02:11:24;8.30;99.90
20574;DHT22;10445;50.216;7.912;2022-09-27T02:14:17;8.20;99.90
20574;DHT22;10445;50.216;7.912;2022-09-27T02:17:14;8.10;99.90
20574;DHT22;10445;50.216;7.912;2022-09-27T02:20:11;8.00;99.90
20574;DHT22;10445;50.216;7.912;2022-09-27T02:23:10;8.00;99.90
20574;DHT22;10445;50.216;7.912;2022-09-27T02:26:06;7.90;99.90
20574;DHT22;10445;50.216;7.912;2022-09-27T02:29:03;7.90;99.90
20574;DHT22;10445;50.216;7.912;2022-09-27T02:31:53;7.90;99.90
20574;DHT22;10445;50.216;7.912;2022-09-27T02:34:42;7.90;99.90
20574;DHT22;10445;50.216;7.912;2022-09-27T02:37:33;7.80;99.90
20574;DHT22;10445;50.216;7.912;2022-09-27T02:40:22;7.90;99.90
20574;DHT22;10445;50.216;7.912;2022-09-27T02:43:13;7.80;99.90
20574;DHT22;10445;50.216;7.912;2022-09-27T02:46:19;7.80;99.90
20574;DHT22;10445;50.216;7.912;2022-09-27T02:49:24;7.80;99.90
20574;DHT22;10445;50.216;7.912;2022-09-27T02:52:24;7.80;99.90
20574;DHT22;10445;50.216;7.912;2022-09-27T02:55:20;7.80;99.90
20574;DHT22;10445;50.216;7.912;2022-09-27T02:58:19;7.90;99.90
20574;DHT22;10445;50.216;7.912;2022-09-27T03:01:13;7.80;99.90
20574;DHT22;10445;50.216;7.912;2022-09-27T03:04:10;7.90;99.90
20574;DHT22;10445;50.216;7.912;2022-09-27T03:06:59;7.90;99.90
20574;DHT22;10445;50.216;7.912;2022-09-27T03:09:50;7.90;99.90
20574;DHT22;10445;50.216;7.912;2022-09-27T03:12:41;7.80;99.90
20574;DHT22;10445;50.216;7.912;2022-09-27T03:15:30;7.90;99.90
20574;DHT22;10445;50.216;7.912;2022-09-27T03:18:18;7.90;99.90
20574;DHT22;10445;50.216;7.912;2022-09-27T03:21:07;7.90;99.90
20574;DHT22;10445;50.216;7.912;2022-09-27T03:23:56;7.90;99.90
20574;DHT22;10445;50.216;7.912;2022-09-27T03:26:44;7.90;99.90
20574;DHT22;10445;50.216;7.912;2022-09-27T03:29:34;7.90;99.90
20574;DHT22;10445;50.216;7.912;2022-09-27T03:32:23;7.90;99.90
20574;DHT22;10445;50.216;7.912;2022-09-27T03:35:12;7.90;99.90
20574;DHT22;10445;50.216;7.912;2022-09-27T03:38:01;7.90;99.90
20574;DHT22;10445;50.216;7.912;2022-09-27T03:40:50;7.90;99.90
20574;DHT22;10445;50.216;7.912;2022-09-27T03:43:39;7.80;99.90
20574;DHT22;10445;50.216;7.912;2022-09-27T03:46:29;7.70;99.90
20574;DHT22;10445;50.216;7.912;2022-09-27T03:49:18;7.80;99.90
20574;DHT22;10445;50.216;7.912;2022-09-27T03:52:07;7.80;99.90
20574;DHT22;10445;50.216;7.912;2022-09-27T03:54:55;7.80;99.90
20574;DHT22;10445;50.216;7.912;2022-09-27T03:57:48;7.70;99.90
20574;DHT22;10445;50.216;7.912;2022-09-27T04:00:37;7.70;99.90
20574;DHT22;10445;50.216;7.912;2022-09-27T04:03:28;7.70;99.90
20574;DHT22;10445;50.216;7.912;2022-09-27T04:06:17;7.70;99.90
20574;DHT22;10445;50.216;7.912;2022-09-27T04:09:06;7.70;99.90
20574;DHT22;10445;50.216;7.912;2022-09-27T04:11:55;7.70;99.90
20574;DHT22;10445;50.216;7.912;2022-09-27T04:14:43;7.70;99.90
20574;DHT22;10445;50.216;7.912;2022-09-27T04:17:32;7.60;99.90
20574;DHT22;10445;50.216;7.912;2022-09-27T04:20:22;7.60;99.90
20574;DHT22;10445;50.216;7.912;2022-09-27T04:23:11;7.50;99.90
20574;DHT22;10445;50.216;7.912;2022-09-27T04:26:00;7.50;99.90
20574;DHT22;10445;50.216;7.912;2022-09-27T04:28:48;7.50;99.90
20574;DHT22;10445;50.216;7.912;2022-09-27T04:31:41;7.60;99.90
20574;DHT22;10445;50.216;7.912;2022-09-27T04:34:30;7.60;99.90
20574;DHT22;10445;50.216;7.912;2022-09-27T04:37:37;7.60;99.90
20574;DHT22;10445;50.216;7.912;2022-09-27T04:40:27;7.60;99.90
20574;DHT22;10445;50.216;7.912;2022-09-27T04:43:15;7.60;99.90
20574;DHT22;10445;50.216;7.912;2022-09-27T04:46:04;7.70;99.90
20574;DHT22;10445;50.216;7.912;2022-09-27T04:48:53;7.70;99.90
20574;DHT22;10445;50.216;7.912;2022-09-27T04:51:42;7.70;99.90
20574;DHT22;10445;50.216;7.912;2022-09-27T04:54:32;7.70;99.90
20574;DHT22;10445;50.216;7.912;2022-09-27T04:57:21;7.70;99.90
20574;DHT22;10445;50.216;7.912;2022-09-27T05:00:10;7.70;99.90
20574;DHT22;10445;50.216;7.912;2022-09-27T05:02:59;7.70;99.90
20574;DHT22;10445;50.216;7.912;2022-09-27T05:05:48;7.70;99.90
20574;DHT22;10445;50.216;7.912;2022-09-27T05:08:37;7.70;99.90
20574;DHT22;10445;50.216;7.912;2022-09-27T05:11:27;7.70;99.90
20574;DHT22;10445;50.216;7.912;2022-09-27T05:14:16;7.70;99.90
20574;DHT22;10445;50.216;7.912;2022-09-27T05:17:05;7.60;99.90
20574;DHT22;10445;50.216;7.912;2022-09-27T05:19:54;7.50;99.90
20574;DHT22;10445;50.216;7.912;2022-09-27T05:22:43;7.50;99.90
20574;DHT22;10445;50.216;7.912;2022-09-27T05:25:32;7.50;99.90
20574;DHT22;10445;50.216;7.912;2022-09-27T05:28:22;7.50;99.90
20574;DHT22;10445;50.216;7.912;2022-09-27T05:31:11;7.50;99.90
20574;DHT22;10445;50.216;7.912;2022-09-27T05:34:00;7.60;99.90
20574;DHT22;10445;50.216;7.912;2022-09-27T05:36:49;7.60;99.90
20574;DHT22;10445;50.216;7.912;2022-09-27T05:39:38;7.60;99.90
20574;DHT22;10445;50.216;7.912;2022-09-27T05:42:27;7.60;99.90
20574;DHT22;10445;50.216;7.912;2022-09-27T05:45:17;7.50;99.90
20574;DHT22;10445;50.216;7.912;2022-09-27T05:48:06;7.50;99.90
20574;DHT22;10445;50.216;7.912;2022-09-27T05:50:55;7.50;99.90
20574;DHT22;10445;50.216;7.912;2022-09-27T05:53:43;7.50;99.90
20574;DHT22;10445;50.216;7.912;2022-09-27T05:56:32;7.50;99.90
20574;DHT22;10445;50.216;7.912;2022-09-27T05:59:21;7.50;99.90
20574;DHT22;10445;50.216;7.912;2022-09-27T06:02:11;7.50;99.90
20574;DHT22;10445;50.216;7.912;2022-09-27T06:05:00;7.50;99.90
20574;DHT22;10445;50.216;7.912;2022-09-27T06:07:49;7.40;99.90
20574;DHT22;10445;50.216;7.912;2022-09-27T06:10:38;7.40;99.90
20574;DHT22;10445;50.216;7.912;2022-09-27T06:13:27;7.40;99.90
20574;DHT22;10445;50.216;7.912;2022-09-27T06:16:16;7.40;99.90
20574;DHT22;10445;50.216;7.912;2022-09-27T06:19:06;7.40;99.90
20574;DHT22;10445;50.216;7.912;2022-09-27T06:21:55;7.40;99.90
20574;DHT22;10445;50.216;7.912;2022-09-27T06:24:44;7.40;99.90
20574;DHT22;10445;50.216;7.912;2022-09-27T06:27:32;7.40;99.90
20574;DHT22;10445;50.216;7.912;2022-09-27T06:30:21;7.40;99.90
20574;DHT22;10445;50.216;7.912;2022-09-27T06:33:11;7.40;99.90
20574;DHT22;10445;50.216;7.912;2022-09-27T06:36:02;7.40;99.90
20574;DHT22;10445;50.216;7.912;2022-09-27T06:38:52;7.40;99.90
20574;DHT22;10445;50.216;7.912;2022-09-27T06:41:40;7.40;99.90
20574;DHT22;10445;50.216;7.912;2022-09-27T06:44:30;7.50;99.90
20574;DHT22;10445;50.216;7.912;2022-09-27T06:47:19;7.50;99.90
20574;DHT22;10445;50.216;7.912;2022-09-27T06:50:08;7.50;99.90
20574;DHT22;10445;50.216;7.912;2022-09-27T06:53:00;7.60;99.90
20574;DHT22;10445;50.216;7.912;2022-09-27T06:55:49;7.60;99.90
20574;DHT22;10445;50.216;7.912;2022-09-27T06:58:38;7.70;99.90
20574;DHT22;10445;50.216;7.912;2022-09-27T07:01:44;7.60;99.90
20574;DHT22;10445;50.216;7.912;2022-09-27T07:04:33;7.70;99.90
20574;DHT22;10445;50.216;7.912;2022-09-27T07:07:22;7.60;99.90
20574;DHT22;10445;50.216;7.912;2022-09-27T07:10:12;7.60;99.90
20574;DHT22;10445;50.216;7.912;2022-09-27T07:13:02;7.60;99.90
20574;DHT22;10445;50.216;7.912;2022-09-27T07:15:51;7.60;99.90
20574;DHT22;10445;50.216;7.912;2022-09-27T07:18:42;7.60;99.90
20574;DHT22;10445;50.216;7.912;2022-09-27T07:21:31;7.60;99.90
20574;DHT22;10445;50.216;7.912;2022-09-27T07:24:19;7.60;99.90
20574;DHT22;10445;50.216;7.912;2022-09-27T07:27:09;7.60;99.90
20574;DHT22;10445;50.216;7.912;2022-09-27T07:29:58;7.60;99.90
20574;DHT22;10445;50.216;7.912;2022-09-27T07:32:47;7.60;99.90
20574;DHT22;10445;50.216;7.912;2022-09-27T07:35:38;7.60;99.90
20574;DHT22;10445;50.216;7.912;2022-09-27T07:38:27;7.60;99.90
20574;DHT22;10445;50.216;7.912;2022-09-27T07:41:16;7.70;99.90
20574;DHT22;10445;50.216;7.912;2022-09-27T07:44:06;7.80;99.90
20574;DHT22;10445;50.216;7.912;2022-09-27T07:46:56;7.80;99.90
20574;DHT22;10445;50.216;7.912;2022-09-27T07:49:45;7.90;99.90
20574;DHT22;10445;50.216;7.912;2022-09-27T07:52:38;8.00;99.90
20574;DHT22;10445;50.216;7.912;2022-09-27T07:55:27;7.90;99.90
20574;DHT22;10445;50.216;7.912;2022-09-27T07:58:16;8.00;99.90
20574;DHT22;10445;50.216;7.912;2022-09-27T08:01:06;8.00;99.90
20574;DHT22;10445;50.216;7.912;2022-09-27T08:03:55;8.10;99.90
20574;DHT22;10445;50.216;7.912;2022-09-27T08:06:44;8.20;99.90
20574;DHT22;10445;50.216;7.912;2022-09-27T08:09:33;8.30;99.90
20574;DHT22;10445;50.216;7.912;2022-09-27T08:12:22;8.40;99.90
20574;DHT22;10445;50.216;7.912;2022-09-27T08:15:10;8.50;99.90
20574;DHT22;10445;50.216;7.912;2022-09-27T08:18:00;8.50;99.90
20574;DHT22;10445;50.216;7.912;2022-09-27T08:20:49;8.50;99.90
20574;DHT22;10445;50.216;7.912;2022-09-27T08:23:38;8.60;99.90
20574;DHT22;10445;50.216;7.912;2022-09-27T08:26:27;8.60;99.80
20574;DHT22;10445;50.216;7.912;2022-09-27T08:29:15;8.60;99.90
20574;DHT22;10445;50.216;7.912;2022-09-27T08:32:04;8.70;99.20
20574;DHT22;10445;50.216;7.912;2022-09-27T08:34:54;8.70;98.80
20574;DHT22;10445;50.216;7.912;2022-09-27T08:37:43;8.80;96.90
20574;DHT22;10445;50.216;7.912;2022-09-27T08:40:50;8.80;96.10
20574;DHT22;10445;50.216;7.912;2022-09-27T08:43:46;8.80;94.90
20574;DHT22;10445;50.216;7.912;2022-09-27T08:46:44;8.70;93.00
20574;DHT22;10445;50.216;7.912;2022-09-27T08:49:37;8.80;94.00
20574;DHT22;10445;50.216;7.912;2022-09-27T08:52:32;8.70;91.90
20574;DHT22;10445;50.216;7.912;2022-09-27T08:55:28;8.60;91.50
20574;DHT22;10445;50.216;7.912;2022-09-27T08:58:22;8.70;92.30
20574;DHT22;10445;50.216;7.912;2022-09-27T09:01:14;8.70;93.20
20574;DHT22;10445;50.216;7.912;2022-09-27T09:04:04;8.70;91.80
20574;DHT22;10445;50.216;7.912;2022-09-27T09:06:58;8.80;94.00
20574;DHT22;10445;50.216;7.912;2022-09-27T09:09:56;8.90;93.50
20574;DHT22;10445;50.216;7.912;2022-09-27T09:12:54;8.90;92.00
20574;DHT22;10445;50.216;7.912;2022-09-27T09:15:53;8.90;92.30
20574;DHT22;10445;50.216;7.912;2022-09-27T09:18:58;9.00;90.90
20574;DHT22;10445;50.216;7.912;2022-09-27T09:21:56;9.10;91.20
20574;DHT22;10445;50.216;7.912;2022-09-27T09:24:58;9.10;92.20
20574;DHT22;10445;50.216;7.912;2022-09-27T09:28:01;9.10;88.90
20574;DHT22;10445;50.216;7.912;2022-09-27T09:30:58;9.10;90.10
20574;DHT22;10445;50.216;7.912;2022-09-27T09:33:56;9.20;87.30
20574;DHT22;10445;50.216;7.912;2022-09-27T09:36:51;9.20;87.40
20574;DHT22;10445;50.216;7.912;2022-09-27T09:39:46;9.30;86.60
20574;DHT22;10445;50.216;7.912;2022-09-27T09:42:41;9.30;86.70
20574;DHT22;10445;50.216;7.912;2022-09-27T09:45:34;9.30;86.90
20574;DHT22;10445;50.216;7.912;2022-09-27T09:48:28;9.50;86.40
20574;DHT22;10445;50.216;7.912;2022-09-27T09:51:22;9.60;84.30
20574;DHT22;10445;50.216;7.912;2022-09-27T09:54:19;9.50;82.20
20574;DHT22;10445;50.216;7.912;2022-09-27T09:57:12;9.50;80.70
20574;DHT22;10445;50.216;7.912;2022-09-27T10:00:11;9.40;81.80
20574;DHT22;10445;50.216;7.912;2022-09-27T10:03:02;9.50;81.40
20574;DHT22;10445;50.216;7.912;2022-09-27T10:05:51;9.50;83.40
20574;DHT22;10445;50.216;7.912;2022-09-27T10:08:40;9.60;80.80
20574;DHT22;10445;50.216;7.912;2022-09-27T10:11:33;9.70;81.80
20574;DHT22;10445;50.216;7.912;2022-09-27T10:14:24;9.90;80.00
20574;DHT22;10445;50.216;7.912;2022-09-27T10:17:18;10.10;79.00
20574;DHT22;10445;50.216;7.912;2022-09-27T10:20:22;10.20;79.60
20574;DHT22;10445;50.216;7.912;2022-09-27T10:23:15;10.30;70.70
20574;DHT22;10445;50.216;7.912;2022-09-27T10:26:05;10.20;65.50
20574;DHT22;10445;50.216;7.912;2022-09-27T10:28:55;10.20;62.60
20574;DHT22;10445;50.216;7.912;2022-09-27T10:31:44;10.20;61.50
20574;DHT22;10445;50.216;7.912;2022-09-27T10:34:37;10.10;66.10
20574;DHT22;10445;50.216;7.912;2022-09-27T10:37:28;10.20;67.20
20574;DHT22;10445;50.216;7.912;2022-09-27T10:40:28;10.30;65.90
20574;DHT22;10445;50.216;7.912;2022-09-27T10:43:28;10.30;62.40
20574;DHT22;10445;50.216;7.912;2022-09-27T10:46:24;10.20;58.50
20574;DHT22;10445;50.216;7.912;2022-09-27T10:49:19;10.20;61.70
20574;DHT22;10445;50.216;7.912;2022-09-27T10:52:14;10.30;65.10
20574;DHT22;10445;50.216;7.912;2022-09-27T10:55:07;10.30;61.70
20574;DHT22;10445;50.216;7.912;2022-09-27T10:58:02;10.30;61.90
20574;DHT22;10445;50.216;7.912;2022-09-27T11:00:56;10.50;60.40
20574;DHT22;10445;50.216;7.912;2022-09-27T11:03:49;10.60;54.80
20574;DHT22;10445;50.216;7.912;2022-09-27T11:06:38;10.60;54.20
20574;DHT22;10445;50.216;7.912;2022-09-27T11:09:29;10.70;60.70
20574;DHT22;10445;50.216;7.912;2022-09-27T11:12:17;10.70;63.00
20574;DHT22;10445;50.216;7.912;2022-09-27T11:15:15;10.90;67.40
20574;DHT22;10445;50.216;7.912;2022-09-27T11:18:11;11.00;60.00
20574;DHT22;10445;50.216;7.912;2022-09-27T11:21:13;11.00;58.10
20574;DHT22;10445;50.216;7.912;2022-09-27T11:27:33;11.00;52.20
20574;DHT22;10445;50.216;7.912;2022-09-27T11:30:32;10.90;49.60
20574;DHT22;10445;50.216;7.912;2022-09-27T11:33:46;10.90;46.60
20574;DHT22;10445;50.216;7.912;2022-09-27T11:36:45;10.90;41.90
20574;DHT22;10445;50.216;7.912;2022-09-27T11:39:55;10.80;46.10
20574;DHT22;10445;50.216;7.912;2022-09-27T11:46:03;10.90;48.30
20574;DHT22;10445;50.216;7.912;2022-09-27T11:49:22;10.90;49.60
20574;DHT22;10445;50.216;7.912;2022-09-27T11:52:30;10.90;44.80
20574;DHT22;10445;50.216;7.912;2022-09-27T11:55:34;10.70;42.00
20574;DHT22;10445;50.216;7.912;2022-09-27T11:58:32;10.70;52.40
20574;DHT22;10445;50.216;7.912;2022-09-27T12:01:32;10.70;52.40
20574;DHT22;10445;50.216;7.912;2022-09-27T12:04:40;10.70;54.00
20574;DHT22;10445;50.216;7.912;2022-09-27T12:07:37;10.70;56.60
20574;DHT22;10445;50.216;7.912;2022-09-27T12:10:28;10.80;57.70
20574;DHT22;10445;50.216;7.912;2022-09-27T12:13:32;10.80;53.30
20574;DHT22;10445;50.216;7.912;2022-09-27T12:16:23;10.80;54.30
20574;DHT22;10445;50.216;7.912;2022-09-27T12:19:17;10.80;54.50
20574;DHT22;10445;50.216;7.912;2022-09-27T12:22:11;10.90;54.20
20574;DHT22;10445;50.216;7.912;2022-09-27T12:25:03;10.90;54.80
20574;DHT22;10445;50.216;7.912;2022-09-27T12:27:56;10.90;52.20
20574;DHT22;10445;50.216;7.912;2022-09-27T12:30:51;11.00;53.50
20574;DHT22;10445;50.216;7.912;2022-09-27T12:34:10;11.10;54.60
20574;DHT22;10445;50.216;7.912;2022-09-27T12:37:11;10.90;53.30
20574;DHT22;10445;50.216;7.912;2022-09-27T12:40:06;10.80;52.30
20574;DHT22;10445;50.216;7.912;2022-09-27T12:43:05;10.70;56.00
20574;DHT22;10445;50.216;7.912;2022-09-27T12:46:02;10.60;56.70
20574;DHT22;10445;50.216;7.912;2022-09-27T12:48:59;10.50;56.00
20574;DHT22;10445;50.216;7.912;2022-09-27T12:51:55;10.50;54.30
20574;DHT22;10445;50.216;7.912;2022-09-27T12:55:04;10.50;50.20
20574;DHT22;10445;50.216;7.912;2022-09-27T12:58:12;10.60;51.20
20574;DHT22;10445;50.216;7.912;2022-09-27T13:01:13;10.70;53.10
20574;DHT22;10445;50.216;7.912;2022-09-27T13:04:28;10.80;50.10
20574;DHT22;10445;50.216;7.912;2022-09-27T13:07:29;10.80;49.20
20574;DHT22;10445;50.216;7.912;2022-09-27T13:10:39;10.70;51.80
20574;DHT22;10445;50.216;7.912;2022-09-27T13:13:34;10.60;47.70
20574;DHT22;10445;50.216;7.912;2022-09-27T13:16:26;10.50;49.60
20574;DHT22;10445;50.216;7.912;2022-09-27T13:19:37;10.40;52.10
20574;DHT22;10445;50.216;7.912;2022-09-27T13:22:39;10.40;51.30
20574;DHT22;10445;50.216;7.912;2022-09-27T13:25:47;10.50;54.10
20574;DHT22;10445;50.216;7.912;2022-09-27T13:28:57;10.60;55.80
20574;DHT22;10445;50.216;7.912;2022-09-27T13:35:20;10.90;47.50
20574;DHT22;10445;50.216;7.912;2022-09-27T13:38:20;10.80;47.70
20574;DHT22;10445;50.216;7.912;2022-09-27T13:41:14;10.80;42.40
20574;DHT22;10445;50.216;7.912;2022-09-27T13:44:08;10.90;47.80
20574;DHT22;10445;50.216;7.912;2022-09-27T13:47:12;10.90;48.40
20574;DHT22;10445;50.216;7.912;2022-09-27T13:50:16;10.90;45.00
20574;DHT22;10445;50.216;7.912;2022-09-27T13:53:13;10.90;47.40
20574;DHT22;10445;50.216;7.912;2022-09-27T13:56:08;10.80;47.50
20574;DHT22;10445;50.216;7.912;2022-09-27T13:59:15;10.70;47.60
20574;DHT22;10445;50.216;7.912;2022-09-27T14:02:18;10.60;41.40
20574;DHT22;10445;50.216;7.912;2022-09-27T14:05:11;10.60;41.80
20574;DHT22;10445;50.216;7.912;2022-09-27T14:08:06;10.70;48.50
20574;DHT22;10445;50.216;7.912;2022-09-27T14:11:08;10.90;46.70
20574;DHT22;10445;50.216;7.912;2022-09-27T14:13:58;11.00;44.00
20574;DHT22;10445;50.216;7.912;2022-09-27T14:16:48;11.00;28.00
20574;DHT22;10445;50.216;7.912;2022-09-27T14:19:40;11.10;34.10
20574;DHT22;10445;50.216;7.912;2022-09-27T14:22:30;11.10;33.80
20574;DHT22;10445;50.216;7.912;2022-09-27T14:25:21;11.10;37.00
20574;DHT22;10445;50.216;7.912;2022-09-27T14:28:18;11.00;31.60
20574;DHT22;10445;50.216;7.912;2022-09-27T14:31:13;11.00;36.90
20574;DHT22;10445;50.216;7.912;2022-09-27T14:34:05;11.00;32.30
20574;DHT22;10445;50.216;7.912;2022-09-27T14:36:57;11.10;29.30
20574;DHT22;10445;50.216;7.912;2022-09-27T14:40:06;11.20;33.10
20574;DHT22;10445;50.216;7.912;2022-09-27T14:42:58;11.20;28.70
20574;DHT22;10445;50.216;7.912;2022-09-27T14:45:48;11.10;31.60
20574;DHT22;10445;50.216;7.912;2022-09-27T14:48:39;11.00;33.00
20574;DHT22;10445;50.216;7.912;2022-09-27T14:51:29;10.90;33.10
20574;DHT22;10445;50.216;7.912;2022-09-27T14:54:25;10.80;34.10
20574;DHT22;10445;50.216;7.912;2022-09-27T14:57:15;10.70;34.20
20574;DHT22;10445;50.216;7.912;2022-09-27T15:00:16;10.70;31.50
20574;DHT22;10445;50.216;7.912;2022-09-27T15:03:11;10.60;33.60
20574;DHT22;10445;50.216;7.912;2022-09-27T15:06:01;10.60;36.70
20574;DHT22;10445;50.216;7.912;2022-09-27T15:08:51;10.60;41.80
20574;DHT22;10445;50.216;7.912;2022-09-27T15:11:42;10.60;43.10
20574;DHT22;10445;50.216;7.912;2022-09-27T15:14:32;10.60;52.00
20574;DHT22;10445;50.216;7.912;2022-09-27T15:17:34;10.50;52.90
20574;DHT22;10445;50.216;7.912;2022-09-27T15:20:30;10.40;57.10
20574;DHT22;10445;50.216;7.912;2022-09-27T15:23:25;10.20;60.90
20574;DHT22;10445;50.216;7.912;2022-09-27T15:26:17;10.00;63.90
20574;DHT22;10445;50.216;7.912;2022-09-27T15:29:17;9.80;70.60
20574;DHT22;10445;50.216;7.912;2022-09-27T15:32:07;9.40;80.70
20574;DHT22;10445;50.216;7.912;2022-09-27T15:35:06;9.00;78.80
20574;DHT22;10445;50.216;7.912;2022-09-27T15:38:27;8.60;81.60
20574;DHT22;10445;50.216;7.912;2022-09-27T15:41:17;8.50;86.80
20574;DHT22;10445;50.216;7.912;2022-09-27T15:44:25;8.40;87.10
20574;DHT22;10445;50.216;7.912;2022-09-27T15:47:41;8.30;88.90
20574;DHT22;10445;50.216;7.912;2022-09-27T15:50:36;8.30;90.80
20574;DHT22;10445;50.216;7.912;2022-09-27T15:53:41;8.40;92.90
20574;DHT22;10445;50.216;7.912;2022-09-27T15:56:30;8.40;94.70
20574;DHT22;10445;50.216;7.912;2022-09-27T15:59:23;8.50;96.10
20574;DHT22;10445;50.216;7.912;2022-09-27T16:02:15;8.50;96.20
20574;DHT22;10445;50.216;7.912;2022-09-27T16:05:06;8.60;96.40
20574;DHT22;10445;50.216;7.912;2022-09-27T16:07:55;8.60;97.30
20574;DHT22;10445;50.216;7.912;2022-09-27T16:10:48;8.60;97.60
20574;DHT22;10445;50.216;7.912;2022-09-27T16:13:38;8.70;98.20
20574;DHT22;10445;50.216;7.912;2022-09-27T16:16:28;8.60;97.90
20574;DHT22;10445;50.216;7.912;2022-09-27T16:19:17;8.70;98.40
20574;DHT22;10445;50.216;7.912;2022-09-27T16:22:06;8.70;98.60
20574;DHT22;10445;50.216;7.912;2022-09-27T16:24:55;8.70;98.40
20574;DHT22;10445;50.216;7.912;2022-09-27T16:27:44;8.80;98.90
20574;DHT22;10445;50.216;7.912;2022-09-27T16:30:32;8.80;99.00
20574;DHT22;10445;50.216;7.912;2022-09-27T16:33:23;8.80;99.00
20574;DHT22;10445;50.216;7.912;2022-09-27T16:36:11;8.80;99.30
20574;DHT22;10445;50.216;7.912;2022-09-27T16:39:06;8.80;99.80
20574;DHT22;10445;50.216;7.912;2022-09-27T16:41:56;8.90;99.90
20574;DHT22;10445;50.216;7.912;2022-09-27T16:44:46;8.90;99.90
20574;DHT22;10445;50.216;7.912;2022-09-27T16:47:37;8.90;99.90
20574;DHT22;10445;50.216;7.912;2022-09-27T16:50:27;8.90;99.90
20574;DHT22;10445;50.216;7.912;2022-09-27T16:53:32;8.80;99.90
20574;DHT22;10445;50.216;7.912;2022-09-27T16:56:21;8.80;99.90
20574;DHT22;10445;50.216;7.912;2022-09-27T16:59:10;8.80;99.80
20574;DHT22;10445;50.216;7.912;2022-09-27T17:02:00;8.80;99.80
20574;DHT22;10445;50.216;7.912;2022-09-27T17:04:51;8.80;99.90
20574;DHT22;10445;50.216;7.912;2022-09-27T17:07:41;8.70;99.00
20574;DHT22;10445;50.216;7.912;2022-09-27T17:10:30;8.80;99.40
20574;DHT22;10445;50.216;7.912;2022-09-27T17:13:19;8.70;98.80
20574;DHT22;10445;50.216;7.912;2022-09-27T17:16:08;8.60;98.10
20574;DHT22;10445;50.216;7.912;2022-09-27T17:18:57;8.60;98.20
20574;DHT22;10445;50.216;7.912;2022-09-27T17:21:46;8.60;97.70
20574;DHT22;10445;50.216;7.912;2022-09-27T17:24:36;8.50;97.30
20574;DHT22;10445;50.216;7.912;2022-09-27T17:27:26;8.40;97.20
20574;DHT22;10445;50.216;7.912;2022-09-27T17:30:15;8.40;96.80
20574;DHT22;10445;50.216;7.912;2022-09-27T17:33:04;8.30;97.10
20574;DHT22;10445;50.216;7.912;2022-09-27T17:35:58;8.20;97.30
20574;DHT22;10445;50.216;7.912;2022-09-27T17:38:49;8.20;97.60
20574;DHT22;10445;50.216;7.912;2022-09-27T17:41:39;8.10;97.10
20574;DHT22;10445;50.216;7.912;2022-09-27T17:44:30;8.10;96.60
20574;DHT22;10445;50.216;7.912;2022-09-27T17:47:18;8.00;96.60
20574;DHT22;10445;50.216;7.912;2022-09-27T17:50:24;8.00;96.60
20574;DHT22;10445;50.216;7.912;2022-09-27T17:53:14;8.00;96.40
20574;DHT22;10445;50.216;7.912;2022-09-27T17:56:03;7.90;96.20
20574;DHT22;10445;50.216;7.912;2022-09-27T17:58:54;7.90;96.60
20574;DHT22;10445;50.216;7.912;2022-09-27T18:01:44;7.90;97.20
20574;DHT22;10445;50.216;7.912;2022-09-27T18:04:34;7.90;97.20
20574;DHT22;10445;50.216;7.912;2022-09-27T18:07:23;7.90;96.80
20574;DHT22;10445;50.216;7.912;2022-09-27T18:10:12;7.80;96.10
20574;DHT22;10445;50.216;7.912;2022-09-27T18:13:03;7.80;96.30
20574;DHT22;10445;50.216;7.912;2022-09-27T18:15:57;7.80;96.00
20574;DHT22;10445;50.216;7.912;2022-09-27T18:18:47;7.80;96.20
20574;DHT22;10445;50.216;7.912;2022-09-27T18:21:36;7.70;96.30
20574;DHT22;10445;50.216;7.912;2022-09-27T18:24:25;7.70;96.60
20574;DHT22;10445;50.216;7.912;2022-09-27T18:27:14;7.60;96.30
20574;DHT22;10445;50.216;7.912;2022-09-27T18:30:05;7.60;96.10
20574;DHT22;10445;50.216;7.912;2022-09-27T18:32:57;7.60;96.20
20574;DHT22;10445;50.216;7.912;2022-09-27T18:35:45;7.50;96.40
20574;DHT22;10445;50.216;7.912;2022-09-27T18:38:34;7.50;96.20
20574;DHT22;10445;50.216;7.912;2022-09-27T18:41:25;7.40;96.10
20574;DHT22;10445;50.216;7.912;2022-09-27T18:44:15;7.40;96.10
20574;DHT22;10445;50.216;7.912;2022-09-27T18:47:05;7.40;96.10